createdAt,value
2018-06-12T00:00:32.188Z,5.03
2018-06-12T00:03:00.212Z,6.10
2018-06-12T00:05:28.561Z,6.25
2018-06-12T00:07:56.874Z,6.40
2018-06-12T00:10:25.208Z,5.87
2018-06-12T00:12:53.525Z,6.55
2018-06-12T00:15:21.858Z,6.25
2018-06-12T00:17:50.208Z,6.90
2018-06-12T00:20:18.541Z,7.42
2018-06-12T00:22:46.844Z,5.95
2018-06-12T00:25:15.168Z,6.08
2018-06-12T00:27:43.472Z,6.75
2018-06-12T00:30:11.794Z,6.60
2018-06-12T00:32:40.165Z,6.75
2018-06-12T00:35:08.497Z,8.05
2018-06-12T00:37:36.814Z,7.72
2018-06-12T00:40:05.171Z,7.30
2018-06-12T00:42:33.489Z,7.58
2018-06-12T00:45:01.819Z,7.42
2018-06-12T00:47:30.133Z,6.67
2018-06-12T00:49:58.487Z,8.40
2018-06-12T00:52:26.797Z,7.97
2018-06-12T00:54:55.124Z,8.53
2018-06-12T00:57:23.465Z,6.70
2018-06-12T00:59:51.841Z,7.05
2018-06-12T01:02:20.148Z,6.30
2018-06-12T01:04:48.209Z,6.72
2018-06-12T01:07:16.252Z,6.95
2018-06-12T01:09:44.617Z,8.28
2018-06-12T01:12:12.957Z,6.97
2018-06-12T01:14:41.008Z,6.97
2018-06-12T01:17:09.372Z,6.62
2018-06-12T01:19:37.708Z,7.62
2018-06-12T01:22:06.066Z,7.90
2018-06-12T01:24:34.382Z,7.45
2018-06-12T01:27:02.719Z,7.10
2018-06-12T01:29:30.758Z,6.70
2018-06-12T01:31:59.093Z,6.12
2018-06-12T01:34:27.416Z,6.45
2018-06-12T01:36:55.740Z,6.25
2018-06-12T01:39:24.048Z,9.08
2018-06-12T01:41:52.377Z,8.15
2018-06-12T01:44:20.412Z,7.53
2018-06-12T01:46:48.741Z,6.28
2018-06-12T01:49:16.771Z,7.08
2018-06-12T01:51:45.125Z,7.25
2018-06-12T01:54:13.436Z,6.97
2018-06-12T01:56:41.772Z,7.03
2018-06-12T01:59:10.100Z,6.28
2018-06-12T02:01:38.435Z,6.03
2018-06-12T02:04:06.740Z,6.85
2018-06-12T02:06:35.076Z,6.85
2018-06-12T02:09:03.180Z,6.67
2018-06-12T02:11:31.501Z,7.10
2018-06-12T02:13:59.805Z,6.90
2018-06-12T02:16:28.137Z,7.20
2018-06-12T02:18:56.457Z,6.70
2018-06-12T02:21:24.777Z,6.12
2018-06-12T02:23:53.090Z,6.90
2018-06-12T02:26:21.433Z,6.58
2018-06-12T02:28:49.733Z,5.55
2018-06-12T02:31:18.062Z,7.20
2018-06-12T02:33:46.372Z,6.87
2018-06-12T02:36:14.715Z,6.90
2018-06-12T02:38:43.029Z,7.53
2018-06-12T02:41:11.361Z,7.40
2018-06-12T02:43:39.689Z,7.35
2018-06-12T02:46:08.045Z,6.80
2018-06-12T02:48:36.350Z,8.35
2018-06-12T02:51:04.669Z,9.53
2018-06-12T02:53:33.017Z,9.58
2018-06-12T02:56:01.344Z,9.68
2018-06-12T02:58:29.681Z,9.13
2018-06-12T03:00:57.989Z,8.23
2018-06-12T03:03:26.317Z,8.45
2018-06-12T03:05:54.637Z,7.67
2018-06-12T03:08:22.978Z,7.78
2018-06-12T03:10:51.296Z,8.10
2018-06-12T03:13:19.345Z,8.40
2018-06-12T03:15:47.673Z,9.98
2018-06-12T03:18:16.016Z,8.93
2018-06-12T03:20:45.309Z,8.78
2018-06-12T03:23:13.695Z,8.60
2018-06-12T03:25:41.988Z,9.45
2018-06-12T03:28:10.323Z,10.28
2018-06-12T03:30:38.647Z,10.98
2018-06-12T03:33:06.976Z,9.88
2018-06-12T03:35:35.310Z,10.00
2018-06-12T03:38:03.643Z,11.00
2018-06-12T03:40:31.963Z,10.03
2018-06-12T03:43:00.292Z,9.90
2018-06-12T03:45:28.609Z,8.88
2018-06-12T03:47:56.691Z,9.18
2018-06-12T03:50:24.732Z,9.88
2018-06-12T03:52:53.064Z,8.65
2018-06-12T03:55:21.376Z,10.95
2018-06-12T03:57:49.746Z,9.43
2018-06-12T04:00:18.057Z,9.70
2018-06-12T04:02:46.384Z,9.38
2018-06-12T04:05:14.701Z,9.78
2018-06-12T04:07:43.099Z,6.90
2018-06-12T04:10:11.369Z,8.28
2018-06-12T04:12:39.697Z,8.60
2018-06-12T04:15:08.075Z,7.05
2018-06-12T04:17:36.382Z,8.05
2018-06-12T04:20:04.696Z,8.28
2018-06-12T04:22:32.756Z,8.25
2018-06-12T04:25:01.070Z,8.33
2018-06-12T04:27:29.397Z,9.00
2018-06-12T04:29:57.740Z,9.65
2018-06-12T04:32:26.060Z,7.90
2018-06-12T04:34:54.403Z,7.75
2018-06-12T04:37:22.716Z,9.43
2018-06-12T04:39:51.064Z,8.58
2018-06-12T04:42:19.386Z,7.72
2018-06-12T04:44:47.711Z,9.13
2018-06-12T04:47:16.027Z,8.00
2018-06-12T04:49:44.376Z,9.20
2018-06-12T04:52:12.697Z,8.18
2018-06-12T04:54:41.066Z,8.63
2018-06-12T04:57:09.354Z,8.48
2018-06-12T04:59:37.716Z,8.23
2018-06-12T05:02:06.417Z,9.20
2018-06-12T05:04:34.736Z,8.65
2018-06-12T05:07:03.038Z,9.45
2018-06-12T05:09:31.379Z,9.25
2018-06-12T05:11:59.422Z,9.83
2018-06-12T05:14:27.768Z,9.15
2018-06-12T05:16:56.090Z,10.03
2018-06-12T05:19:24.449Z,9.13
2018-06-12T05:21:52.779Z,10.70
2018-06-12T05:24:21.108Z,11.18
2018-06-12T05:26:49.425Z,9.63
2018-06-12T05:29:17.491Z,10.23
2018-06-12T05:31:45.812Z,11.33
2018-06-12T05:34:14.172Z,10.53
2018-06-12T05:36:42.493Z,10.28
2018-06-12T05:39:11.617Z,10.13
2018-06-12T05:41:40.397Z,10.55
2018-06-12T05:44:08.777Z,12.68
2018-06-12T05:46:37.088Z,11.63
2018-06-12T05:49:05.169Z,10.70
2018-06-12T05:51:33.509Z,9.50
2018-06-12T05:54:01.868Z,9.28
2018-06-12T05:56:30.186Z,10.05
2018-06-12T05:58:58.561Z,9.78
2018-06-12T06:01:26.905Z,9.65
2018-06-12T06:03:55.220Z,10.00
2018-06-12T06:06:23.561Z,10.48
2018-06-12T06:08:51.883Z,11.53
2018-06-12T06:11:20.212Z,11.53
2018-06-12T06:13:48.516Z,12.13
2018-06-12T06:16:16.844Z,11.75
2018-06-12T06:18:45.164Z,10.80
2018-06-12T06:21:13.511Z,11.83
2018-06-12T06:23:41.816Z,12.98
2018-06-12T06:26:10.148Z,10.88
2018-06-12T06:28:38.196Z,11.95
2018-06-12T06:31:06.544Z,11.78
2018-06-12T06:33:34.577Z,11.80
2018-06-12T06:36:02.912Z,12.30
2018-06-12T06:38:31.229Z,12.85
2018-06-12T06:40:59.545Z,12.45
2018-06-12T06:43:27.872Z,12.33
2018-06-12T06:45:56.210Z,13.20
2018-06-12T06:48:24.538Z,11.85
2018-06-12T06:50:52.881Z,11.73
2018-06-12T06:53:21.200Z,11.38
2018-06-12T06:55:49.537Z,11.18
2018-06-12T06:58:17.891Z,12.18
2018-06-12T07:00:46.229Z,11.28
2018-06-12T07:03:14.265Z,10.82
2018-06-12T07:05:42.633Z,12.15
2018-06-12T07:08:10.937Z,13.30
2018-06-12T07:10:39.280Z,12.70
2018-06-12T07:13:07.589Z,11.85
2018-06-12T07:15:35.922Z,13.45
2018-06-12T07:18:04.238Z,13.05
2018-06-12T07:20:43.833Z,11.88
2018-06-12T07:23:12.157Z,12.43
2018-06-12T07:25:40.509Z,13.45
2018-06-12T07:28:08.821Z,13.03
2018-06-12T07:30:37.149Z,11.78
2018-06-12T07:33:05.681Z,11.45
2018-06-12T07:35:34.017Z,11.80
2018-06-12T07:38:02.342Z,11.20
2018-06-12T07:40:30.672Z,11.95
2018-06-12T07:42:59.008Z,11.10
2018-06-12T07:45:27.351Z,11.55
2018-06-12T07:47:55.655Z,11.38
2018-06-12T07:50:24.013Z,10.68
2018-06-12T07:52:52.464Z,10.23
2018-06-12T07:55:20.769Z,9.35
2018-06-12T07:57:49.113Z,11.45
2018-06-12T08:00:17.465Z,11.78
2018-06-12T08:02:45.801Z,10.80
2018-06-12T08:05:14.113Z,10.85
2018-06-12T08:07:42.450Z,9.73
2018-06-12T08:10:10.770Z,11.22
2018-06-12T08:12:39.111Z,11.15
2018-06-12T08:15:07.455Z,11.08
2018-06-12T08:17:35.794Z,11.20
2018-06-12T08:20:04.142Z,11.68
2018-06-12T08:22:32.489Z,11.83
2018-06-12T08:25:00.536Z,11.57
2018-06-12T08:27:28.876Z,11.85
2018-06-12T08:29:57.313Z,10.25
2018-06-12T08:32:25.540Z,11.08
2018-06-12T08:34:53.852Z,10.15
2018-06-12T08:37:22.181Z,11.03
2018-06-12T08:39:50.550Z,10.70
2018-06-12T08:42:18.844Z,11.22
2018-06-12T08:44:47.165Z,10.23
2018-06-12T08:47:16.205Z,11.35
2018-06-12T08:49:44.510Z,10.45
2018-06-12T08:52:12.840Z,10.78
2018-06-12T08:54:41.144Z,9.35
2018-06-12T08:57:09.486Z,9.25
2018-06-12T08:59:37.820Z,9.78
2018-06-12T09:02:06.467Z,8.75
2018-06-12T09:04:34.516Z,9.50
2018-06-12T09:07:02.845Z,9.88
2018-06-12T09:09:31.161Z,8.43
2018-06-12T09:11:59.504Z,9.23
2018-06-12T09:14:27.828Z,9.30
2018-06-12T09:16:56.170Z,8.95
2018-06-12T09:19:24.481Z,9.83
2018-06-12T09:21:52.830Z,9.05
2018-06-12T09:24:21.153Z,9.58
2018-06-12T09:26:50.342Z,9.00
2018-06-12T09:29:18.663Z,8.93
2018-06-12T09:31:46.989Z,8.78
2018-06-12T09:34:15.357Z,9.38
2018-06-12T09:36:43.752Z,7.75
2018-06-12T09:39:12.077Z,8.65
2018-06-12T09:41:40.387Z,9.80
2018-06-12T09:44:08.717Z,7.50
2018-06-12T09:46:37.060Z,8.78
2018-06-12T09:49:05.469Z,8.30
2018-06-12T09:51:33.770Z,8.83
2018-06-12T09:54:02.137Z,7.42
2018-06-12T09:56:30.517Z,6.75
2018-06-12T09:58:58.612Z,7.22
2018-06-12T10:01:27.573Z,5.10
2018-06-12T10:03:55.917Z,3.80
2018-06-12T10:06:24.261Z,4.90
2018-06-12T10:08:52.795Z,6.47
2018-06-12T10:11:21.224Z,6.20
2018-06-12T10:13:49.717Z,4.60
2018-06-12T10:16:18.144Z,4.87
2018-06-12T10:18:46.514Z,4.90
2018-06-12T10:21:14.837Z,5.03
2018-06-12T10:23:43.172Z,5.43
2018-06-12T10:26:11.497Z,5.60
2018-06-12T10:28:40.500Z,6.00
2018-06-12T10:31:08.572Z,5.73
2018-06-12T10:33:36.916Z,6.67
2018-06-12T10:36:05.277Z,5.90
2018-06-12T10:38:33.622Z,5.50
2018-06-12T10:41:02.018Z,5.40
2018-06-12T10:43:30.365Z,5.30
2018-06-12T10:45:58.689Z,4.53
2018-06-12T10:48:27.078Z,5.60
2018-06-12T10:50:55.396Z,4.87
2018-06-12T10:53:23.969Z,5.50
2018-06-12T10:55:52.089Z,5.53
2018-06-12T10:58:21.731Z,5.73
2018-06-12T11:00:50.701Z,5.17
2018-06-12T11:03:19.245Z,4.70
2018-06-12T11:05:47.928Z,5.13
2018-06-12T11:08:16.284Z,5.00
2018-06-12T11:10:45.693Z,5.50
2018-06-12T11:13:13.866Z,4.37
2018-06-12T11:15:42.184Z,5.10
2018-06-12T11:18:10.518Z,4.70
2018-06-12T11:20:38.566Z,5.20
2018-06-12T11:23:06.926Z,4.63
2018-06-12T11:25:35.228Z,4.60
2018-06-12T11:28:03.553Z,4.20
2018-06-12T11:30:31.886Z,4.30
2018-06-12T11:33:00.248Z,6.37
2018-06-12T11:35:28.525Z,6.33
2018-06-12T11:37:56.857Z,5.60
2018-06-12T11:40:25.193Z,5.07
2018-06-12T11:42:53.542Z,6.28
2018-06-12T11:45:21.884Z,5.62
2018-06-12T11:47:50.262Z,6.05
2018-06-12T11:50:18.625Z,6.03
2018-06-12T11:52:46.952Z,5.53
2018-06-12T11:55:15.295Z,5.97
2018-06-12T11:57:43.613Z,4.83
2018-06-12T12:00:11.965Z,6.10
2018-06-12T12:02:40.010Z,4.55
2018-06-12T12:05:08.357Z,4.05
2018-06-12T12:07:36.908Z,5.28
2018-06-12T12:10:05.246Z,5.10
2018-06-12T12:12:33.563Z,5.03
2018-06-12T12:15:01.908Z,5.75
2018-06-12T12:17:30.221Z,6.90
2018-06-12T12:19:58.785Z,6.75
2018-06-12T12:22:26.848Z,10.35
2018-06-12T12:24:55.185Z,10.50
2018-06-12T12:27:23.509Z,11.97
2018-06-12T12:29:51.861Z,13.15
2018-06-12T12:32:20.237Z,14.18
2018-06-12T12:34:48.582Z,14.98
2018-06-12T12:37:16.892Z,17.05
2018-06-12T12:39:45.249Z,14.85
2018-06-12T12:42:13.573Z,14.28
2018-06-12T12:44:41.912Z,14.10
2018-06-12T12:47:10.257Z,11.80
2018-06-12T12:49:38.400Z,11.93
2018-06-12T12:52:06.718Z,8.40
2018-06-12T12:54:35.074Z,6.97
2018-06-12T12:57:03.437Z,7.28
2018-06-12T12:59:31.772Z,7.30
2018-06-12T13:02:00.110Z,8.23
2018-06-12T13:04:28.424Z,10.05
2018-06-12T13:06:56.757Z,9.73
2018-06-12T13:09:25.086Z,10.08
2018-06-12T13:11:53.425Z,11.45
2018-06-12T13:14:21.732Z,10.90
2018-06-12T13:16:50.073Z,12.37
2018-06-12T13:19:18.391Z,11.60
2018-06-12T13:21:46.720Z,12.85
2018-06-12T13:24:15.040Z,12.80
2018-06-12T13:26:43.439Z,13.03
2018-06-12T13:29:11.717Z,12.68
2018-06-12T13:31:40.065Z,10.20
2018-06-12T13:34:08.390Z,12.33
2018-06-12T13:36:36.726Z,12.88
2018-06-12T13:39:05.423Z,11.93
2018-06-12T13:41:33.752Z,13.10
2018-06-12T13:44:02.080Z,13.45
2018-06-12T13:46:30.460Z,13.85
2018-06-12T13:48:58.753Z,13.83
2018-06-12T13:51:27.096Z,15.05
2018-06-12T13:53:55.400Z,13.18
2018-06-12T13:56:23.746Z,12.47
2018-06-12T13:58:52.085Z,13.95
2018-06-12T14:01:20.420Z,11.03
2018-06-12T14:03:48.745Z,13.08
2018-06-12T14:06:17.089Z,14.00
2018-06-12T14:08:45.409Z,11.00
2018-06-12T14:11:13.762Z,12.07
2018-06-12T14:13:42.176Z,13.20
2018-06-12T14:16:10.433Z,14.35
2018-06-12T14:18:38.744Z,13.22
2018-06-12T14:21:07.081Z,13.35
2018-06-12T14:23:35.401Z,15.32
2018-06-12T14:26:03.741Z,13.28
2018-06-12T14:28:32.062Z,14.78
2018-06-12T14:31:00.421Z,14.68
2018-06-12T14:33:28.741Z,14.00
2018-06-12T14:35:56.848Z,14.18
2018-06-12T14:38:25.197Z,14.15
2018-06-12T14:40:53.250Z,14.28
2018-06-12T14:43:21.577Z,15.05
2018-06-12T14:45:49.892Z,13.22
2018-06-12T14:48:18.242Z,13.15
2018-06-12T14:50:46.589Z,14.30
2018-06-12T14:53:14.653Z,13.65
2018-06-12T14:55:42.705Z,13.95
2018-06-12T14:58:11.065Z,13.00
2018-06-12T15:00:39.382Z,13.43
2018-06-12T15:03:07.716Z,13.45
2018-06-12T15:05:36.047Z,13.38
2018-06-12T15:08:04.407Z,11.73
2018-06-12T15:10:32.729Z,12.18
2018-06-12T15:13:01.076Z,10.63
2018-06-12T15:15:29.134Z,10.58
2018-06-12T15:17:57.472Z,10.85
2018-06-12T15:20:25.781Z,12.33
2018-06-12T15:22:54.133Z,12.73
2018-06-12T15:25:22.489Z,11.12
2018-06-12T15:27:50.844Z,11.05
2018-06-12T15:30:19.231Z,12.25
2018-06-12T15:32:47.589Z,11.75
2018-06-12T15:35:15.913Z,11.38
2018-06-12T15:37:44.253Z,9.93
2018-06-12T15:40:12.581Z,11.38
2018-06-12T15:42:40.950Z,12.35
2018-06-12T15:45:09.271Z,11.85
2018-06-12T15:47:37.613Z,11.28
2018-06-12T15:50:05.963Z,12.95
2018-06-12T15:52:34.336Z,11.22
2018-06-12T15:55:02.650Z,12.33
2018-06-12T15:57:30.981Z,11.55
2018-06-12T15:59:59.306Z,13.03
2018-06-12T16:02:27.637Z,12.35
2018-06-12T16:04:55.985Z,12.80
2018-06-12T16:07:24.369Z,10.72
2018-06-12T16:09:52.722Z,13.25
2018-06-12T16:12:21.038Z,12.65
2018-06-12T16:14:49.365Z,15.13
2018-06-12T16:17:17.669Z,13.03
2018-06-12T16:19:46.021Z,13.38
2018-06-12T16:22:14.065Z,13.60
2018-06-12T16:24:42.409Z,14.47
2018-06-12T16:27:10.713Z,12.93
2018-06-12T16:29:39.048Z,14.75
2018-06-12T16:32:07.364Z,13.40
2018-06-12T16:34:35.728Z,12.10
2018-06-12T16:37:04.053Z,12.65
2018-06-12T16:39:32.127Z,12.33
2018-06-12T16:42:00.452Z,12.25
2018-06-12T16:44:28.793Z,13.90
2018-06-12T16:46:57.098Z,14.60
2018-06-12T16:49:25.434Z,13.48
2018-06-12T16:51:53.774Z,13.18
2018-06-12T16:54:22.108Z,12.05
2018-06-12T16:56:50.431Z,13.25
2018-06-12T16:59:18.825Z,12.95
2018-06-12T17:01:47.136Z,13.72
2018-06-12T17:04:15.469Z,12.25
2018-06-12T17:06:43.806Z,12.35
2018-06-12T17:09:11.864Z,11.45
2018-06-12T17:11:42.476Z,11.80
2018-06-12T17:14:10.814Z,11.45
2018-06-12T17:16:39.136Z,10.93
2018-06-12T17:19:07.497Z,11.40
2018-06-12T17:21:35.920Z,12.30
2018-06-12T17:24:03.979Z,13.08
2018-06-12T17:26:32.325Z,10.60
2018-06-12T17:29:00.677Z,10.40
2018-06-12T17:31:29.164Z,9.18
2018-06-12T17:33:57.525Z,10.50
2018-06-12T17:36:25.870Z,9.95
2018-06-12T17:38:54.195Z,11.00
2018-06-12T17:41:22.509Z,11.30
2018-06-12T17:43:50.893Z,10.78
2018-06-12T17:46:19.200Z,11.93
2018-06-12T17:48:47.544Z,10.25
2018-06-12T17:51:15.861Z,10.18
2018-06-12T17:53:44.206Z,12.75
2018-06-12T17:56:12.517Z,10.05
2018-06-12T17:58:40.894Z,10.65
2018-06-12T18:01:09.202Z,11.25
2018-06-12T18:03:37.549Z,10.58
2018-06-12T18:06:05.886Z,13.03
2018-06-12T18:08:33.945Z,12.75
2018-06-12T18:11:02.276Z,10.40
2018-06-12T18:13:30.588Z,11.08
2018-06-12T18:15:58.920Z,9.50
2018-06-12T18:18:27.245Z,10.40
2018-06-12T18:20:55.572Z,9.93
2018-06-12T18:23:23.912Z,11.73
2018-06-12T18:25:52.241Z,11.43
2018-06-12T18:28:20.558Z,10.50
2018-06-12T18:30:48.903Z,12.63
2018-06-12T18:33:17.246Z,14.18
2018-06-12T18:35:45.609Z,14.50
2018-06-12T18:38:13.926Z,15.25
2018-06-12T18:40:42.281Z,13.90
2018-06-12T18:43:10.331Z,14.50
2018-06-12T18:45:38.684Z,14.85
2018-06-12T18:48:07.001Z,14.40
2018-06-12T18:50:35.337Z,15.53
2018-06-12T18:53:03.653Z,14.50
2018-06-12T18:55:31.981Z,14.55
2018-06-12T18:58:00.308Z,15.23
2018-06-12T19:00:28.652Z,15.50
2018-06-12T19:02:56.977Z,18.82
2018-06-12T19:05:25.325Z,22.15
2018-06-12T19:07:53.646Z,22.00
2018-06-12T19:10:21.983Z,21.05
2018-06-12T19:12:50.301Z,24.75
2018-06-12T19:15:18.381Z,21.85
2018-06-12T19:17:46.437Z,25.77
2018-06-12T19:20:14.532Z,25.45
2018-06-12T19:22:42.849Z,26.75
2018-06-12T19:25:11.181Z,28.05
2018-06-12T19:27:39.505Z,27.37
2018-06-12T19:30:07.853Z,28.20
2018-06-12T19:32:35.895Z,28.77
2018-06-12T19:35:04.262Z,27.70
2018-06-12T19:37:32.586Z,31.30
2018-06-12T19:40:00.912Z,29.77
2018-06-12T19:42:29.282Z,29.48
2018-06-12T19:44:58.222Z,32.50
2018-06-12T19:47:26.542Z,32.48
2018-06-12T19:49:54.887Z,29.18
2018-06-12T19:52:23.547Z,32.75
2018-06-12T19:54:51.982Z,31.82
2018-06-12T19:57:20.313Z,31.57
2018-06-12T19:59:48.647Z,31.45
2018-06-12T20:02:16.976Z,30.72
2018-06-12T20:04:45.032Z,30.15
2018-06-12T20:07:13.366Z,28.77
2018-06-12T20:09:41.688Z,24.82
2018-06-12T20:12:10.030Z,29.37
2018-06-12T20:14:38.346Z,26.95
2018-06-12T20:17:06.689Z,26.17
2018-06-12T20:19:35.023Z,25.85
2018-06-12T20:22:03.352Z,25.62
2018-06-12T20:24:31.669Z,25.10
2018-06-12T20:27:00.022Z,21.37
2018-06-12T20:29:28.357Z,19.55
2018-06-12T20:31:56.689Z,19.40
2018-06-12T20:34:25.076Z,17.35
2018-06-12T20:36:53.424Z,16.05
2018-06-12T20:39:21.733Z,14.28
2018-06-12T20:41:50.072Z,12.90
2018-06-12T20:44:18.392Z,11.38
2018-06-12T20:46:46.805Z,10.85
2018-06-12T20:49:15.125Z,10.40
2018-06-12T20:51:43.487Z,11.43
2018-06-12T20:54:11.896Z,10.78
2018-06-12T20:56:40.244Z,11.70
2018-06-12T20:59:08.601Z,11.97
2018-06-12T21:01:36.932Z,11.88
2018-06-12T21:04:05.244Z,15.00
2018-06-12T21:06:33.603Z,17.87
2018-06-12T21:09:01.925Z,20.25
2018-06-12T21:11:30.252Z,21.80
2018-06-12T21:13:58.589Z,19.98
2018-06-12T21:16:26.904Z,23.50
2018-06-12T21:18:55.241Z,19.20
2018-06-12T21:21:23.572Z,21.37
2018-06-12T21:23:51.911Z,21.33
2018-06-12T21:26:20.232Z,24.87
2018-06-12T21:28:48.556Z,26.15
2018-06-12T21:31:16.881Z,25.40
2018-06-12T21:33:45.222Z,24.65
2018-06-12T21:36:13.549Z,23.65
2018-06-12T21:38:41.883Z,23.38
2018-06-12T21:41:10.208Z,21.73
2018-06-12T21:43:38.549Z,21.10
2018-06-12T21:46:06.863Z,21.05
2018-06-12T21:48:35.199Z,22.20
2018-06-12T21:51:03.522Z,21.95
2018-06-12T21:53:31.859Z,23.38
2018-06-12T21:56:00.177Z,21.95
2018-06-12T21:58:28.538Z,22.42
2018-06-12T22:00:56.857Z,20.72
2018-06-12T22:03:25.193Z,21.55
2018-06-12T22:05:53.500Z,19.27
2018-06-12T22:08:21.838Z,20.60
2018-06-12T22:10:50.176Z,20.75
2018-06-12T22:13:18.242Z,18.10
2018-06-12T22:15:46.559Z,16.95
2018-06-12T22:18:14.889Z,15.55
2018-06-12T22:20:43.200Z,16.32
2018-06-12T22:23:11.529Z,15.78
2018-06-12T22:25:39.860Z,16.67
2018-06-12T22:28:08.196Z,18.40
2018-06-12T22:30:36.502Z,17.67
2018-06-12T22:33:04.889Z,19.82
2018-06-12T22:35:33.201Z,18.80
2018-06-12T22:38:01.546Z,19.48
2018-06-12T22:40:29.865Z,21.17
2018-06-12T22:42:58.196Z,17.85
2018-06-12T22:45:26.269Z,19.00
2018-06-12T22:47:54.325Z,19.80
2018-06-12T22:50:22.682Z,19.00
2018-06-12T22:52:51.010Z,18.25
2018-06-12T22:55:19.340Z,20.08
2018-06-12T22:57:47.722Z,21.50
2018-06-12T23:00:19.616Z,18.87
2018-06-12T23:02:47.652Z,19.73
2018-06-12T23:05:16.002Z,20.55
2018-06-12T23:07:44.313Z,20.17
2018-06-12T23:10:12.673Z,19.23
2018-06-12T23:12:40.986Z,18.77
2018-06-12T23:15:09.353Z,18.25
2018-06-12T23:17:37.671Z,17.95
2018-06-12T23:20:17.266Z,19.90
2018-06-12T23:22:45.572Z,18.45
2018-06-12T23:25:13.900Z,18.90
2018-06-12T23:27:42.204Z,16.95
2018-06-12T23:30:10.537Z,16.57
2018-06-12T23:32:38.841Z,16.30
2018-06-12T23:35:07.164Z,15.83
2018-06-12T23:37:35.472Z,18.00
2018-06-12T23:40:03.832Z,15.05
2018-06-12T23:42:31.876Z,15.55
2018-06-12T23:45:00.205Z,14.78
2018-06-12T23:47:28.509Z,15.88
2018-06-12T23:49:56.840Z,15.65
2018-06-12T23:52:24.887Z,16.62
2018-06-12T23:54:53.220Z,14.45
2018-06-12T23:57:21.533Z,16.75
2018-06-12T23:59:49.878Z,15.35
